createdAt,value
2022-09-25T00:01:14.859Z,13.57
2022-09-25T00:03:43.093Z,13.58
2022-09-25T00:06:16.215Z,13.50
2022-09-25T00:08:44.368Z,13.59
2022-09-25T00:11:14.050Z,13.68
2022-09-25T00:13:42.720Z,13.50
2022-09-25T00:16:12.425Z,13.57
2022-09-25T00:18:57.960Z,13.69
2022-09-25T00:21:31.654Z,13.55
2022-09-25T00:24:00.380Z,13.58
2022-09-25T00:26:30.029Z,13.57
2022-09-25T00:28:58.983Z,13.61
2022-09-25T00:31:26.765Z,13.47
2022-09-25T00:33:55.365Z,13.51
2022-09-25T00:36:23.369Z,13.47
2022-09-25T00:38:53.088Z,13.68
2022-09-25T00:41:23.485Z,13.46
2022-09-25T00:43:53.210Z,13.37
2022-09-25T00:46:23.872Z,13.37
2022-09-25T00:48:56.025Z,13.46
2022-09-25T00:51:29.021Z,13.46
2022-09-25T00:54:01.495Z,13.39
2022-09-25T00:56:32.868Z,13.38
2022-09-25T00:59:00.680Z,13.31
2022-09-25T01:01:28.832Z,13.19
2022-09-25T01:03:57.997Z,13.37
2022-09-25T01:06:27.392Z,13.41
2022-09-25T01:08:56.165Z,13.35
2022-09-25T01:11:25.158Z,13.44
2022-09-25T01:13:56.984Z,13.41
2022-09-25T01:16:32.814Z,13.53
2022-09-25T01:19:13.680Z,13.49
2022-09-25T01:21:45.512Z,13.53
2022-09-25T01:24:46.558Z,13.55
2022-09-25T01:27:36.365Z,13.53
2022-09-25T01:30:09.733Z,13.55
2022-09-25T01:32:51.543Z,13.67
2022-09-25T01:35:26.829Z,13.55
2022-09-25T01:37:59.971Z,13.57
2022-09-25T01:40:33.804Z,13.75
2022-09-25T01:43:10.729Z,13.87
2022-09-25T01:45:44.883Z,14.05
2022-09-25T01:48:15.114Z,14.06
2022-09-25T01:50:47.853Z,14.09
2022-09-25T01:53:20.735Z,14.20
2022-09-25T01:55:53.481Z,14.03
2022-09-25T01:58:27.597Z,14.25
2022-09-25T02:01:01.098Z,14.01
2022-09-25T02:03:36.430Z,13.83
2022-09-25T02:06:07.909Z,14.15
2022-09-25T02:08:40.522Z,13.82
2022-09-25T02:11:09.790Z,14.04
2022-09-25T02:13:42.223Z,13.95
2022-09-25T02:16:17.489Z,13.96
2022-09-25T02:19:03.997Z,13.87
2022-09-25T02:21:43.614Z,13.70
2022-09-25T02:24:20.350Z,13.73
2022-09-25T02:26:49.235Z,13.70
2022-09-25T02:29:17.523Z,13.75
2022-09-25T02:31:50.093Z,13.61
2022-09-25T02:34:18.541Z,13.60
2022-09-25T02:36:46.368Z,13.74
2022-09-25T02:39:18.121Z,13.79
2022-09-25T02:41:57.277Z,13.69
2022-09-25T02:44:34.770Z,13.80
2022-09-25T02:47:15.316Z,13.82
2022-09-25T02:49:52.366Z,13.76
2022-09-25T02:52:28.451Z,13.82
2022-09-25T02:55:05.300Z,13.80
2022-09-25T02:57:38.319Z,13.81
2022-09-25T03:00:08.905Z,14.05
2022-09-25T03:02:40.364Z,13.84
2022-09-25T03:05:12.568Z,14.09
2022-09-25T03:07:54.713Z,14.19
2022-09-25T03:10:24.434Z,14.37
2022-09-25T03:12:52.202Z,14.38
2022-09-25T03:15:21.294Z,14.43
2022-09-25T03:17:52.191Z,14.36
2022-09-25T03:20:20.305Z,14.25
2022-09-25T03:22:48.100Z,14.32
2022-09-25T03:25:16.926Z,14.21
2022-09-25T03:27:44.563Z,14.11
2022-09-25T03:30:13.191Z,14.43
2022-09-25T03:32:42.174Z,14.43
2022-09-25T03:35:11.774Z,14.45
2022-09-25T03:37:39.422Z,14.52
2022-09-25T03:40:08.554Z,14.38
2022-09-25T03:42:36.351Z,14.29
2022-09-25T03:45:04.441Z,14.25
2022-09-25T03:47:32.110Z,14.22
2022-09-25T03:50:00.150Z,14.26
2022-09-25T03:52:29.200Z,14.08
2022-09-25T03:54:57.588Z,13.89
2022-09-25T03:57:25.833Z,14.01
2022-09-25T03:59:54.065Z,14.07
2022-09-25T04:02:21.768Z,14.07
2022-09-25T04:04:50.725Z,14.21
2022-09-25T04:07:18.637Z,14.40
2022-09-25T04:09:47.620Z,14.41
2022-09-25T04:12:15.484Z,14.50
2022-09-25T04:14:45.250Z,14.12
2022-09-25T04:17:12.891Z,13.92
2022-09-25T04:19:40.837Z,14.08
2022-09-25T04:22:08.487Z,14.20
2022-09-25T04:24:51.408Z,14.26
2022-09-25T04:27:22.986Z,13.90
2022-09-25T04:29:51.341Z,14.04
2022-09-25T04:32:36.321Z,13.80
2022-09-25T04:35:05.072Z,13.93
2022-09-25T04:37:32.804Z,13.98
2022-09-25T04:40:00.936Z,14.10
2022-09-25T04:42:29.955Z,14.12
2022-09-25T04:44:59.790Z,14.21
2022-09-25T04:47:30.017Z,14.16
2022-09-25T04:49:58.010Z,14.12
2022-09-25T04:52:25.739Z,14.23
2022-09-25T04:54:53.726Z,13.93
2022-09-25T04:57:53.330Z,14.07
2022-09-25T05:00:19.628Z,13.99
2022-09-25T05:02:47.651Z,14.18
2022-09-25T05:05:16.206Z,14.31
2022-09-25T05:07:52.456Z,14.25
2022-09-25T05:10:21.219Z,14.44
2022-09-25T05:12:49.190Z,14.50
2022-09-25T05:15:18.938Z,13.77
2022-09-25T05:17:46.578Z,14.04
2022-09-25T05:20:14.548Z,14.14
2022-09-25T05:22:42.167Z,14.15
2022-09-25T05:25:10.722Z,14.03
2022-09-25T05:27:38.439Z,14.33
2022-09-25T05:30:08.873Z,14.22
2022-09-25T05:32:37.887Z,14.47
2022-09-25T05:35:06.857Z,14.86
2022-09-25T05:37:34.477Z,14.67
2022-09-25T05:40:02.810Z,14.61
2022-09-25T05:42:32.001Z,14.54
2022-09-25T05:45:04.916Z,14.47
2022-09-25T05:47:34.965Z,14.29
2022-09-25T05:50:04.859Z,14.23
2022-09-25T05:52:32.800Z,14.05
2022-09-25T05:55:01.178Z,14.55
2022-09-25T05:57:31.987Z,14.69
2022-09-25T06:00:00.344Z,14.84
2022-09-25T06:02:28.115Z,14.94
2022-09-25T06:04:55.807Z,14.94
2022-09-25T06:07:25.226Z,15.10
2022-09-25T06:09:52.880Z,15.17
2022-09-25T06:12:21.073Z,15.05
2022-09-25T06:14:48.825Z,14.90
2022-09-25T06:17:17.212Z,14.76
2022-09-25T06:19:44.835Z,14.47
2022-09-25T06:22:12.896Z,14.74
2022-09-25T06:24:42.323Z,14.87
2022-09-25T06:27:10.385Z,14.89
2022-09-25T06:29:38.071Z,14.97
2022-09-25T06:32:06.061Z,14.98
2022-09-25T06:34:33.711Z,14.71
2022-09-25T06:37:02.260Z,14.76
2022-09-25T06:39:33.068Z,15.17
2022-09-25T06:42:02.398Z,15.11
2022-09-25T06:44:30.061Z,15.29
2022-09-25T06:46:59.802Z,15.04
2022-09-25T06:49:27.617Z,15.33
2022-09-25T06:51:55.641Z,14.70
2022-09-25T06:54:23.287Z,14.92
2022-09-25T06:56:51.110Z,15.00
2022-09-25T06:59:20.106Z,15.07
2022-09-25T07:01:47.830Z,15.00
2022-09-25T07:04:14.970Z,15.57
2022-09-25T07:06:46.212Z,14.93
2022-09-25T07:09:14.324Z,15.01
2022-09-25T07:11:44.152Z,14.76
2022-09-25T07:14:12.008Z,14.75
2022-09-25T07:16:41.191Z,14.69
2022-09-25T07:19:10.879Z,14.75
2022-09-25T07:21:40.829Z,15.12
2022-09-25T07:24:10.195Z,14.77
2022-09-25T07:26:42.959Z,14.55
2022-09-25T07:29:14.226Z,14.58
2022-09-25T07:31:44.055Z,14.34
2022-09-25T07:34:13.296Z,14.57
2022-09-25T07:36:42.693Z,14.54
2022-09-25T07:39:16.066Z,14.65
2022-09-25T07:41:45.309Z,15.07
2022-09-25T07:44:31.628Z,15.09
2022-09-25T07:47:03.758Z,15.00
2022-09-25T07:49:34.542Z,15.52
2022-09-25T07:52:03.595Z,15.45
2022-09-25T07:54:31.537Z,15.86
2022-09-25T07:56:59.230Z,15.73
2022-09-25T07:59:27.245Z,15.46
2022-09-25T08:01:54.980Z,15.86
2022-09-25T08:04:24.120Z,16.29
2022-09-25T08:06:51.812Z,16.07
2022-09-25T08:09:19.834Z,16.11
2022-09-25T08:11:47.506Z,16.18
2022-09-25T08:14:16.169Z,16.34
2022-09-25T08:16:44.027Z,16.54
2022-09-25T08:19:12.383Z,15.96
2022-09-25T08:21:41.457Z,16.20
2022-09-25T08:24:11.062Z,16.16
2022-09-25T08:26:39.098Z,16.17
2022-09-25T08:29:09.738Z,15.86
2022-09-25T08:31:37.555Z,15.89
2022-09-25T08:34:28.122Z,15.68
2022-09-25T08:36:55.016Z,16.06
2022-09-25T08:39:23.022Z,15.89
2022-09-25T08:41:53.894Z,16.32
2022-09-25T08:44:28.874Z,16.25
2022-09-25T08:47:19.630Z,16.33
2022-09-25T08:49:52.479Z,16.75
2022-09-25T08:52:22.817Z,16.79
2022-09-25T08:54:53.076Z,16.77
2022-09-25T08:57:35.104Z,17.37
2022-09-25T09:00:06.328Z,17.00
2022-09-25T09:02:39.839Z,17.53
2022-09-25T09:05:18.507Z,18.13
2022-09-25T09:07:51.350Z,18.63
2022-09-25T09:10:30.569Z,18.54
2022-09-25T09:13:03.717Z,18.05
2022-09-25T09:15:41.577Z,17.68
2022-09-25T09:18:18.823Z,18.13
2022-09-25T09:20:53.610Z,17.71
2022-09-25T09:23:24.565Z,18.71
2022-09-25T09:26:01.350Z,19.15
2022-09-25T09:28:49.605Z,18.37
2022-09-25T09:31:23.760Z,18.91
2022-09-25T09:34:01.665Z,18.50
2022-09-25T09:36:39.270Z,18.46
2022-09-25T09:39:20.665Z,19.05
2022-09-25T09:42:01.693Z,19.95
2022-09-25T09:44:40.188Z,20.02
2022-09-25T09:47:19.300Z,20.00
2022-09-25T09:49:51.583Z,19.00
2022-09-25T09:52:23.361Z,19.08
2022-09-25T09:54:55.767Z,17.80
2022-09-25T09:57:26.468Z,18.27
2022-09-25T10:00:04.424Z,18.63
2022-09-25T10:02:39.700Z,18.52
2022-09-25T10:05:16.791Z,20.21
2022-09-25T10:07:46.101Z,20.46
2022-09-25T10:10:17.147Z,20.61
2022-09-25T10:12:48.010Z,22.63
2022-09-25T10:15:33.555Z,21.14
2022-09-25T10:18:05.221Z,21.05
2022-09-25T10:20:43.452Z,21.74
2022-09-25T10:23:25.939Z,22.90
2022-09-25T10:25:56.326Z,22.03
2022-09-25T10:28:29.142Z,22.58
2022-09-25T10:30:59.278Z,22.53
2022-09-25T10:33:29.271Z,22.20
2022-09-25T10:35:57.860Z,21.27
2022-09-25T10:38:34.432Z,20.89
2022-09-25T10:41:08.580Z,20.86
2022-09-25T10:43:36.886Z,21.34
2022-09-25T10:46:13.035Z,21.41
2022-09-25T10:48:59.707Z,20.92
2022-09-25T10:51:28.037Z,21.65
2022-09-25T10:54:13.035Z,22.42
2022-09-25T10:56:43.103Z,21.24
2022-09-25T10:59:18.768Z,21.54
2022-09-25T11:01:49.194Z,23.07
2022-09-25T11:04:20.142Z,21.82
2022-09-25T11:06:52.288Z,20.96
2022-09-25T11:09:24.134Z,21.94
2022-09-25T11:12:04.772Z,21.45
2022-09-25T11:14:35.396Z,22.21
2022-09-25T11:17:05.967Z,22.58
2022-09-25T11:19:36.107Z,22.61
2022-09-25T11:22:15.280Z,22.10
2022-09-25T11:25:01.093Z,22.14
2022-09-25T11:27:37.575Z,21.72
2022-09-25T11:30:08.160Z,21.27
2022-09-25T11:32:48.852Z,21.46
2022-09-25T11:35:33.862Z,22.68
2022-09-25T11:38:11.395Z,22.71
2022-09-25T11:41:07.578Z,21.39
2022-09-25T11:43:46.883Z,22.48
2022-09-25T11:46:23.853Z,21.84
2022-09-25T11:49:05.448Z,22.43
2022-09-25T11:51:57.173Z,21.97
2022-09-25T11:54:34.858Z,22.61
2022-09-25T11:57:08.845Z,22.89
2022-09-25T11:59:50.222Z,23.15
2022-09-25T12:02:27.205Z,22.33
2022-09-25T12:05:23.569Z,21.97
2022-09-25T12:08:12.122Z,21.25
2022-09-25T12:10:50.682Z,21.30
2022-09-25T12:13:27.957Z,21.10
2022-09-25T12:16:13.542Z,21.96
2022-09-25T12:18:57.760Z,21.81
2022-09-25T12:21:34.311Z,22.66
2022-09-25T12:24:15.063Z,21.39
2022-09-25T12:26:52.755Z,19.79
2022-09-25T12:29:45.570Z,19.27
2022-09-25T12:32:22.348Z,19.79
2022-09-25T12:35:15.821Z,20.16
2022-09-25T12:37:49.301Z,19.97
2022-09-25T12:40:24.623Z,20.32
2022-09-25T12:42:58.835Z,20.00
2022-09-25T12:45:34.510Z,20.35
2022-09-25T12:48:13.657Z,19.76
2022-09-25T12:50:52.726Z,19.79
2022-09-25T12:53:30.890Z,19.29
2022-09-25T12:56:05.360Z,19.22
2022-09-25T12:58:53.196Z,18.93
2022-09-25T13:01:26.907Z,18.30
2022-09-25T13:04:07.887Z,16.85
2022-09-25T13:06:44.933Z,16.08
2022-09-25T13:09:22.642Z,15.53
2022-09-25T13:11:57.317Z,14.67
2022-09-25T13:14:35.188Z,14.07
2022-09-25T13:17:03.837Z,13.99
2022-09-25T13:19:35.169Z,14.36
2022-09-25T13:22:06.746Z,15.25
2022-09-25T13:24:46.797Z,15.54
2022-09-25T13:27:22.158Z,15.73
2022-09-25T13:29:59.414Z,15.59
2022-09-25T13:32:31.817Z,15.60
2022-09-25T13:35:04.431Z,15.52
2022-09-25T13:37:34.233Z,14.84
2022-09-25T13:40:26.967Z,14.76
2022-09-25T13:42:55.300Z,14.60
2022-09-25T13:45:34.322Z,14.57
2022-09-25T13:48:07.950Z,14.33
2022-09-25T13:50:43.548Z,14.44
2022-09-25T13:53:21.403Z,14.25
2022-09-25T13:56:20.038Z,14.50
2022-09-25T13:59:22.436Z,14.82
2022-09-25T14:02:24.848Z,14.79
2022-09-25T14:04:52.993Z,15.00
2022-09-25T14:07:25.850Z,14.81
2022-09-25T14:09:56.954Z,15.06
2022-09-25T14:12:30.084Z,14.84
2022-09-25T14:15:02.251Z,14.66
2022-09-25T14:17:33.234Z,14.95
2022-09-25T14:20:05.995Z,15.00
2022-09-25T14:22:44.562Z,15.25
2022-09-25T14:25:28.511Z,15.74
2022-09-25T14:27:56.330Z,16.43
2022-09-25T14:30:29.170Z,16.67
2022-09-25T14:33:17.937Z,15.76
2022-09-25T14:35:55.374Z,16.17
2022-09-25T14:38:54.387Z,16.15
2022-09-25T14:41:48.146Z,15.78
2022-09-25T14:44:26.666Z,15.97
2022-09-25T14:46:56.486Z,16.06
2022-09-25T14:49:27.098Z,16.60
2022-09-25T14:51:57.016Z,16.49
2022-09-25T14:54:29.949Z,16.27
2022-09-25T14:56:59.274Z,16.08
2022-09-25T14:59:32.977Z,16.56
2022-09-25T15:02:02.988Z,16.45
2022-09-25T15:04:34.149Z,16.65
2022-09-25T15:07:10.358Z,16.35
2022-09-25T15:09:47.571Z,16.06
2022-09-25T15:12:21.879Z,16.04
2022-09-25T15:15:04.162Z,16.17
2022-09-25T15:17:32.845Z,16.03
2022-09-25T15:20:04.085Z,16.33
2022-09-25T15:22:35.229Z,16.10
2022-09-25T15:25:07.911Z,16.20
2022-09-25T15:27:42.441Z,16.40
2022-09-25T15:30:15.969Z,16.74
2022-09-25T15:32:48.013Z,16.43
2022-09-25T15:35:19.785Z,16.01
2022-09-25T15:37:48.830Z,16.27
2022-09-25T15:40:28.379Z,15.25
2022-09-25T15:42:56.890Z,15.67
2022-09-25T15:45:44.824Z,15.85
2022-09-25T15:48:28.036Z,15.85
2022-09-25T15:50:56.970Z,15.93
2022-09-25T15:53:30.247Z,16.13
2022-09-25T15:56:18.580Z,16.30
2022-09-25T15:58:51.177Z,16.00
2022-09-25T16:01:40.124Z,15.85
2022-09-25T16:04:28.339Z,15.88
2022-09-25T16:06:56.400Z,16.03
2022-09-25T16:09:34.937Z,15.85
2022-09-25T16:12:28.874Z,15.61
2022-09-25T16:14:58.257Z,15.56
2022-09-25T16:17:33.156Z,15.42
2022-09-25T16:20:08.157Z,15.36
2022-09-25T16:22:41.559Z,15.35
2022-09-25T16:25:21.971Z,15.35
2022-09-25T16:27:51.159Z,15.23
2022-09-25T16:30:22.258Z,15.24
2022-09-25T16:32:53.379Z,15.24
2022-09-25T16:35:40.638Z,15.00
2022-09-25T16:38:28.118Z,14.96
2022-09-25T16:41:05.574Z,15.10
2022-09-25T16:43:36.150Z,15.15
2022-09-25T16:46:13.941Z,15.04
2022-09-25T16:48:46.076Z,15.09
2022-09-25T16:51:21.452Z,15.09
2022-09-25T16:53:50.325Z,14.89
2022-09-25T16:56:21.665Z,14.95
2022-09-25T16:58:50.901Z,14.84
2022-09-25T17:01:19.096Z,14.82
2022-09-25T17:03:53.260Z,14.77
2022-09-25T17:06:22.441Z,14.89
2022-09-25T17:08:50.635Z,14.76
2022-09-25T17:11:20.427Z,14.90
2022-09-25T17:13:50.276Z,14.82
2022-09-25T17:16:18.114Z,14.81
2022-09-25T17:18:45.878Z,14.85
2022-09-25T17:21:16.438Z,14.72
2022-09-25T17:23:45.054Z,14.72
2022-09-25T17:26:18.442Z,14.70
2022-09-25T17:28:46.365Z,14.65
2022-09-25T17:31:20.111Z,14.68
2022-09-25T17:33:49.811Z,14.63
2022-09-25T17:36:18.243Z,14.62
2022-09-25T17:38:45.912Z,14.67
2022-09-25T17:41:19.392Z,14.72
2022-09-25T17:43:47.114Z,14.78
2022-09-25T17:46:19.171Z,14.77
2022-09-25T17:48:53.244Z,14.68
2022-09-25T17:51:24.796Z,14.86
2022-09-25T17:53:53.678Z,14.84
2022-09-25T17:56:21.787Z,14.63
2022-09-25T17:58:49.603Z,14.81
2022-09-25T18:01:22.502Z,14.65
2022-09-25T18:03:50.361Z,14.57
2022-09-25T18:06:19.500Z,14.61
2022-09-25T18:08:47.852Z,14.97
2022-09-25T18:11:16.551Z,14.79
2022-09-25T18:13:45.102Z,14.67
2022-09-25T18:16:16.505Z,14.76
2022-09-25T18:19:04.568Z,14.88
2022-09-25T18:21:50.160Z,14.83
2022-09-25T18:24:18.140Z,14.64
2022-09-25T18:26:47.058Z,14.80
2022-09-25T18:29:16.774Z,14.71
2022-09-25T18:31:45.030Z,14.79
2022-09-25T18:34:14.527Z,14.72
2022-09-25T18:36:43.038Z,14.77
2022-09-25T18:39:13.867Z,14.81
2022-09-25T18:41:45.502Z,14.88
2022-09-25T18:44:13.252Z,14.73
2022-09-25T18:46:41.587Z,14.83
2022-09-25T18:49:09.472Z,14.93
2022-09-25T18:51:38.777Z,14.93
2022-09-25T18:54:06.758Z,14.91
2022-09-25T18:56:35.278Z,14.89
2022-09-25T18:59:05.371Z,14.76
2022-09-25T19:01:33.611Z,14.87
2022-09-25T19:04:05.107Z,14.77
2022-09-25T19:06:33.691Z,14.89
2022-09-25T19:09:04.581Z,14.76
2022-09-25T19:11:32.753Z,14.66
2022-09-25T19:14:04.706Z,14.71
2022-09-25T19:16:38.099Z,14.85
2022-09-25T19:19:06.326Z,14.83
2022-09-25T19:21:34.524Z,14.86
2022-09-25T19:24:03.894Z,14.87
2022-09-25T19:26:31.925Z,14.88
2022-09-25T19:29:00.956Z,14.89
2022-09-25T19:31:30.147Z,15.00
2022-09-25T19:33:58.311Z,15.10
2022-09-25T19:36:30.814Z,15.05
2022-09-25T19:38:59.509Z,15.07
2022-09-25T19:41:30.698Z,14.86
2022-09-25T19:44:00.513Z,14.83
2022-09-25T19:46:30.064Z,14.75
2022-09-25T19:48:57.786Z,14.67
2022-09-25T19:51:27.181Z,14.69
2022-09-25T19:53:55.405Z,14.65
2022-09-25T19:56:23.596Z,14.67
2022-09-25T19:58:52.613Z,14.63
2022-09-25T20:01:24.387Z,14.73
2022-09-25T20:03:52.016Z,14.77
2022-09-25T20:06:19.969Z,14.69
2022-09-25T20:08:47.680Z,14.78
2022-09-25T20:11:18.556Z,14.54
2022-09-25T20:13:47.525Z,14.41
2022-09-25T20:16:18.941Z,14.52
2022-09-25T20:18:48.957Z,14.71
2022-09-25T20:21:17.565Z,14.68
2022-09-25T20:23:45.484Z,14.63
2022-09-25T20:26:15.666Z,14.63
2022-09-25T20:28:44.428Z,14.63
2022-09-25T20:31:14.700Z,14.68
2022-09-25T20:33:44.073Z,14.69
2022-09-25T20:36:13.893Z,14.76
2022-09-25T20:38:41.945Z,14.82
2022-09-25T20:41:12.444Z,14.77
2022-09-25T20:43:40.841Z,14.76
2022-09-25T20:46:12.755Z,14.72
2022-09-25T20:48:42.150Z,14.77
2022-09-25T20:51:14.712Z,14.66
2022-09-25T20:53:43.481Z,14.85
2022-09-25T20:56:13.145Z,14.71
2022-09-25T20:58:42.357Z,14.81
2022-09-25T21:01:12.957Z,14.89
2022-09-25T21:03:42.458Z,14.78
2022-09-25T21:06:13.942Z,14.72
2022-09-25T21:08:41.757Z,14.73
2022-09-25T21:11:11.566Z,14.86
2022-09-25T21:13:40.958Z,14.65
2022-09-25T21:16:10.500Z,14.62
2022-09-25T21:18:40.545Z,14.88
2022-09-25T21:21:12.101Z,14.81
2022-09-25T21:23:40.651Z,14.62
2022-09-25T21:26:11.409Z,14.58
2022-09-25T21:28:40.665Z,14.69
2022-09-25T21:31:10.206Z,14.71
2022-09-25T21:33:38.537Z,14.75
2022-09-25T21:36:07.332Z,15.09
2022-09-25T21:38:37.221Z,15.18
2022-09-25T21:41:07.701Z,15.39
2022-09-25T21:43:36.864Z,14.98
2022-09-25T21:46:07.818Z,15.36
2022-09-25T21:48:36.827Z,15.13
2022-09-25T21:51:07.585Z,15.29
2022-09-25T21:53:37.676Z,15.35
2022-09-25T21:56:08.185Z,15.60
2022-09-25T21:58:36.467Z,15.68
2022-09-25T22:01:06.534Z,15.72
2022-09-25T22:03:35.360Z,15.72
2022-09-25T22:06:05.323Z,15.24
2022-09-25T22:08:35.302Z,15.28
2022-09-25T22:11:05.767Z,15.05
2022-09-25T22:13:36.676Z,15.02
2022-09-25T22:16:06.805Z,15.14
2022-09-25T22:18:35.808Z,15.35
2022-09-25T22:21:03.808Z,14.98
2022-09-25T22:23:31.437Z,14.98
2022-09-25T22:26:01.648Z,14.85
2022-09-25T22:28:30.848Z,14.86
2022-09-25T22:30:58.943Z,15.03
2022-09-25T22:33:26.614Z,14.62
2022-09-25T22:36:00.012Z,14.94
2022-09-25T22:38:27.953Z,14.76
2022-09-25T22:40:56.286Z,14.54
2022-09-25T22:43:24.087Z,14.42
2022-09-25T22:45:54.614Z,14.44
2022-09-25T22:48:22.280Z,14.30
2022-09-25T22:50:57.475Z,14.17
2022-09-25T22:53:25.669Z,14.24
2022-09-25T22:55:53.477Z,14.04
2022-09-25T22:58:21.324Z,14.24
2022-09-25T23:00:53.676Z,14.18
2022-09-25T23:03:24.419Z,13.88
2022-09-25T23:05:52.530Z,14.05
2022-09-25T23:08:20.263Z,13.94
2022-09-25T23:11:06.151Z,13.82
2022-09-25T23:13:35.575Z,13.78
2022-09-25T23:16:07.696Z,13.71
2022-09-25T23:18:36.578Z,13.48
2022-09-25T23:21:05.120Z,13.62
2022-09-25T23:23:33.337Z,13.62
2022-09-25T23:26:06.457Z,13.79
2022-09-25T23:28:35.441Z,13.67
2022-09-25T23:31:09.305Z,13.70
2022-09-25T23:33:38.105Z,13.68
2022-09-25T23:36:07.794Z,13.85
2022-09-25T23:38:35.961Z,13.56
2022-09-25T23:41:13.474Z,13.44
2022-09-25T23:43:41.436Z,13.47
2022-09-25T23:46:10.877Z,13.60
2022-09-25T23:48:39.014Z,13.34
2022-09-25T23:51:07.066Z,13.45
2022-09-25T23:53:35.460Z,13.30
2022-09-25T23:56:07.336Z,13.70
2022-09-25T23:58:35.339Z,13.38
